sensor_id;sensor_type;location;lat;lon;timestamp;P1;durP1;ratioP1;P2;durP2;ratioP2
59302;SDS011;45074;52.764;6.896;2023-07-28T00:00:37;25.00;;;12.95;;
59302;SDS011;45074;52.764;6.896;2023-07-28T00:03:03;23.75;;;12.07;;
59302;SDS011;45074;52.764;6.896;2023-07-28T00:05:29;20.25;;;11.80;;
59302;SDS011;45074;52.764;6.896;2023-07-28T00:07:54;21.15;;;12.40;;
59302;SDS011;45074;52.764;6.896;2023-07-28T00:10:20;21.77;;;12.23;;
59302;SDS011;45074;52.764;6.896;2023-07-28T00:12:46;19.77;;;11.25;;
59302;SDS011;45074;52.764;6.896;2023-07-28T00:15:11;22.02;;;12.05;;
59302;SDS011;45074;52.764;6.896;2023-07-28T00:17:37;20.88;;;11.93;;
59302;SDS011;45074;52.764;6.896;2023-07-28T00:20:02;21.55;;;11.75;;
59302;SDS011;45074;52.764;6.896;2023-07-28T00:22:28;21.88;;;12.23;;
59302;SDS011;45074;52.764;6.896;2023-07-28T00:24:54;21.33;;;12.48;;
59302;SDS011;45074;52.764;6.896;2023-07-28T00:27:19;21.23;;;12.50;;
59302;SDS011;45074;52.764;6.896;2023-07-28T00:29:45;20.33;;;11.77;;
59302;SDS011;45074;52.764;6.896;2023-07-28T00:32:11;21.33;;;12.20;;
59302;SDS011;45074;52.764;6.896;2023-07-28T00:34:36;21.35;;;12.77;;
59302;SDS011;45074;52.764;6.896;2023-07-28T00:37:02;20.30;;;12.68;;
59302;SDS011;45074;52.764;6.896;2023-07-28T00:39:28;19.98;;;12.43;;
59302;SDS011;45074;52.764;6.896;2023-07-28T00:41:53;21.05;;;12.77;;
59302;SDS011;45074;52.764;6.896;2023-07-28T00:44:19;22.27;;;12.70;;
59302;SDS011;45074;52.764;6.896;2023-07-28T00:46:44;22.75;;;12.57;;
59302;SDS011;45074;52.764;6.896;2023-07-28T00:49:10;21.67;;;12.90;;
59302;SDS011;45074;52.764;6.896;2023-07-28T00:51:36;22.38;;;12.23;;
59302;SDS011;45074;52.764;6.896;2023-07-28T00:54:03;23.48;;;12.73;;
59302;SDS011;45074;52.764;6.896;2023-07-28T00:56:30;21.15;;;12.15;;
59302;SDS011;45074;52.764;6.896;2023-07-28T00:58:56;22.90;;;12.75;;
59302;SDS011;45074;52.764;6.896;2023-07-28T01:01:22;22.15;;;12.88;;
59302;SDS011;45074;52.764;6.896;2023-07-28T01:03:48;24.23;;;13.20;;
59302;SDS011;45074;52.764;6.896;2023-07-28T01:06:30;21.60;;;12.38;;
59302;SDS011;45074;52.764;6.896;2023-07-28T01:09:14;22.58;;;12.68;;
59302;SDS011;45074;52.764;6.896;2023-07-28T01:11:56;23.65;;;13.02;;
59302;SDS011;45074;52.764;6.896;2023-07-28T01:14:23;21.85;;;13.30;;
59302;SDS011;45074;52.764;6.896;2023-07-28T01:16:50;25.17;;;12.68;;
59302;SDS011;45074;52.764;6.896;2023-07-28T01:19:20;24.33;;;12.90;;
59302;SDS011;45074;52.764;6.896;2023-07-28T01:21:48;25.85;;;12.60;;
59302;SDS011;45074;52.764;6.896;2023-07-28T01:24:49;24.33;;;13.18;;
59302;SDS011;45074;52.764;6.896;2023-07-28T01:27:21;25.50;;;13.48;;
59302;SDS011;45074;52.764;6.896;2023-07-28T01:29:47;21.73;;;12.98;;
59302;SDS011;45074;52.764;6.896;2023-07-28T01:32:14;24.45;;;13.38;;
59302;SDS011;45074;52.764;6.896;2023-07-28T01:34:39;26.45;;;14.00;;
59302;SDS011;45074;52.764;6.896;2023-07-28T01:37:05;22.45;;;13.77;;
59302;SDS011;45074;52.764;6.896;2023-07-28T01:39:31;26.13;;;13.93;;
59302;SDS011;45074;52.764;6.896;2023-07-28T01:41:56;25.70;;;13.88;;
59302;SDS011;45074;52.764;6.896;2023-07-28T01:44:22;25.17;;;13.98;;
59302;SDS011;45074;52.764;6.896;2023-07-28T01:46:47;28.65;;;14.65;;
59302;SDS011;45074;52.764;6.896;2023-07-28T01:49:13;24.77;;;14.13;;
59302;SDS011;45074;52.764;6.896;2023-07-28T01:51:39;24.67;;;13.95;;
59302;SDS011;45074;52.764;6.896;2023-07-28T01:54:04;24.45;;;13.23;;
59302;SDS011;45074;52.764;6.896;2023-07-28T01:56:30;29.00;;;14.20;;
59302;SDS011;45074;52.764;6.896;2023-07-28T01:58:55;31.77;;;14.60;;
59302;SDS011;45074;52.764;6.896;2023-07-28T02:01:21;26.58;;;14.07;;
59302;SDS011;45074;52.764;6.896;2023-07-28T02:03:46;25.48;;;14.18;;
59302;SDS011;45074;52.764;6.896;2023-07-28T02:06:12;26.90;;;14.15;;
59302;SDS011;45074;52.764;6.896;2023-07-28T02:08:38;25.95;;;14.40;;
59302;SDS011;45074;52.764;6.896;2023-07-28T02:11:03;21.80;;;13.32;;
59302;SDS011;45074;52.764;6.896;2023-07-28T02:13:29;26.85;;;14.15;;
59302;SDS011;45074;52.764;6.896;2023-07-28T02:15:55;30.08;;;15.27;;
59302;SDS011;45074;52.764;6.896;2023-07-28T02:18:20;25.88;;;14.02;;
59302;SDS011;45074;52.764;6.896;2023-07-28T02:20:49;23.92;;;13.30;;
59302;SDS011;45074;52.764;6.896;2023-07-28T02:23:15;29.58;;;14.30;;
59302;SDS011;45074;52.764;6.896;2023-07-28T02:25:40;25.83;;;13.80;;
59302;SDS011;45074;52.764;6.896;2023-07-28T02:28:07;24.52;;;13.82;;
59302;SDS011;45074;52.764;6.896;2023-07-28T02:30:34;23.52;;;13.52;;
59302;SDS011;45074;52.764;6.896;2023-07-28T02:33:00;24.77;;;13.02;;
59302;SDS011;45074;52.764;6.896;2023-07-28T02:35:26;21.95;;;12.27;;
59302;SDS011;45074;52.764;6.896;2023-07-28T02:37:51;25.23;;;13.40;;
59302;SDS011;45074;52.764;6.896;2023-07-28T02:40:17;26.98;;;12.70;;
59302;SDS011;45074;52.764;6.896;2023-07-28T02:42:43;22.77;;;13.02;;
59302;SDS011;45074;52.764;6.896;2023-07-28T02:45:08;26.20;;;13.90;;
59302;SDS011;45074;52.764;6.896;2023-07-28T02:47:35;21.42;;;12.48;;
59302;SDS011;45074;52.764;6.896;2023-07-28T02:50:01;23.20;;;12.70;;
59302;SDS011;45074;52.764;6.896;2023-07-28T02:52:26;25.90;;;12.60;;
59302;SDS011;45074;52.764;6.896;2023-07-28T02:54:52;21.85;;;12.82;;
59302;SDS011;45074;52.764;6.896;2023-07-28T02:57:17;27.27;;;12.45;;
59302;SDS011;45074;52.764;6.896;2023-07-28T02:59:43;24.33;;;14.07;;
59302;SDS011;45074;52.764;6.896;2023-07-28T03:02:09;23.77;;;13.27;;
59302;SDS011;45074;52.764;6.896;2023-07-28T03:04:34;25.42;;;13.13;;
59302;SDS011;45074;52.764;6.896;2023-07-28T03:07:00;24.83;;;12.98;;
59302;SDS011;45074;52.764;6.896;2023-07-28T03:09:25;21.65;;;12.98;;
59302;SDS011;45074;52.764;6.896;2023-07-28T03:11:51;23.95;;;13.68;;
59302;SDS011;45074;52.764;6.896;2023-07-28T03:14:17;23.42;;;13.27;;
59302;SDS011;45074;52.764;6.896;2023-07-28T03:16:42;25.17;;;13.45;;
59302;SDS011;45074;52.764;6.896;2023-07-28T03:19:08;25.95;;;13.73;;
59302;SDS011;45074;52.764;6.896;2023-07-28T03:21:34;23.00;;;13.63;;
59302;SDS011;45074;52.764;6.896;2023-07-28T03:23:59;19.13;;;12.43;;
59302;SDS011;45074;52.764;6.896;2023-07-28T03:26:25;24.05;;;13.30;;
59302;SDS011;45074;52.764;6.896;2023-07-28T03:28:50;23.48;;;12.32;;
59302;SDS011;45074;52.764;6.896;2023-07-28T03:31:16;22.35;;;12.68;;
59302;SDS011;45074;52.764;6.896;2023-07-28T03:33:42;21.63;;;12.50;;
59302;SDS011;45074;52.764;6.896;2023-07-28T03:36:07;24.90;;;13.88;;
59302;SDS011;45074;52.764;6.896;2023-07-28T03:38:33;23.88;;;12.65;;
59302;SDS011;45074;52.764;6.896;2023-07-28T03:40:59;23.70;;;13.10;;
59302;SDS011;45074;52.764;6.896;2023-07-28T03:43:24;23.27;;;12.57;;
59302;SDS011;45074;52.764;6.896;2023-07-28T03:45:50;22.80;;;13.25;;
59302;SDS011;45074;52.764;6.896;2023-07-28T03:48:16;24.58;;;12.82;;
59302;SDS011;45074;52.764;6.896;2023-07-28T03:50:41;23.70;;;12.65;;
59302;SDS011;45074;52.764;6.896;2023-07-28T03:53:07;20.48;;;12.15;;
59302;SDS011;45074;52.764;6.896;2023-07-28T03:55:32;19.77;;;11.98;;
59302;SDS011;45074;52.764;6.896;2023-07-28T03:57:59;23.00;;;13.13;;
59302;SDS011;45074;52.764;6.896;2023-07-28T04:00:25;27.65;;;13.57;;
59302;SDS011;45074;52.764;6.896;2023-07-28T04:02:51;21.88;;;13.07;;
59302;SDS011;45074;52.764;6.896;2023-07-28T04:05:17;23.08;;;12.90;;
59302;SDS011;45074;52.764;6.896;2023-07-28T04:07:42;23.35;;;13.85;;
59302;SDS011;45074;52.764;6.896;2023-07-28T04:10:08;25.02;;;13.23;;
59302;SDS011;45074;52.764;6.896;2023-07-28T04:12:34;23.55;;;15.15;;
59302;SDS011;45074;52.764;6.896;2023-07-28T04:14:59;22.80;;;12.77;;
59302;SDS011;45074;52.764;6.896;2023-07-28T04:17:25;24.63;;;13.68;;
59302;SDS011;45074;52.764;6.896;2023-07-28T04:19:50;24.60;;;13.13;;
59302;SDS011;45074;52.764;6.896;2023-07-28T04:22:16;26.90;;;13.18;;
59302;SDS011;45074;52.764;6.896;2023-07-28T04:24:46;23.90;;;13.30;;
59302;SDS011;45074;52.764;6.896;2023-07-28T04:27:13;22.80;;;12.73;;
59302;SDS011;45074;52.764;6.896;2023-07-28T04:29:38;25.80;;;12.63;;
59302;SDS011;45074;52.764;6.896;2023-07-28T04:32:04;21.63;;;12.57;;
59302;SDS011;45074;52.764;6.896;2023-07-28T04:34:32;22.25;;;12.70;;
59302;SDS011;45074;52.764;6.896;2023-07-28T04:36:58;21.33;;;12.23;;
59302;SDS011;45074;52.764;6.896;2023-07-28T04:39:24;23.77;;;12.93;;
59302;SDS011;45074;52.764;6.896;2023-07-28T04:41:50;23.35;;;13.18;;
59302;SDS011;45074;52.764;6.896;2023-07-28T04:44:16;24.67;;;12.77;;
59302;SDS011;45074;52.764;6.896;2023-07-28T04:46:42;23.00;;;12.00;;
59302;SDS011;45074;52.764;6.896;2023-07-28T04:49:08;20.13;;;12.48;;
59302;SDS011;45074;52.764;6.896;2023-07-28T04:51:34;21.33;;;12.52;;
59302;SDS011;45074;52.764;6.896;2023-07-28T04:53:59;22.92;;;12.75;;
59302;SDS011;45074;52.764;6.896;2023-07-28T04:56:25;21.25;;;12.90;;
59302;SDS011;45074;52.764;6.896;2023-07-28T04:58:50;21.83;;;12.43;;
59302;SDS011;45074;52.764;6.896;2023-07-28T05:01:16;26.70;;;12.82;;
59302;SDS011;45074;52.764;6.896;2023-07-28T05:03:42;21.55;;;12.82;;
59302;SDS011;45074;52.764;6.896;2023-07-28T05:06:07;22.33;;;12.55;;
59302;SDS011;45074;52.764;6.896;2023-07-28T05:08:33;25.58;;;12.38;;
59302;SDS011;45074;52.764;6.896;2023-07-28T05:10:59;21.88;;;12.95;;
59302;SDS011;45074;52.764;6.896;2023-07-28T05:13:24;22.25;;;13.48;;
59302;SDS011;45074;52.764;6.896;2023-07-28T05:15:50;22.45;;;13.43;;
59302;SDS011;45074;52.764;6.896;2023-07-28T05:18:16;23.35;;;13.30;;
59302;SDS011;45074;52.764;6.896;2023-07-28T05:20:41;21.92;;;13.32;;
59302;SDS011;45074;52.764;6.896;2023-07-28T05:23:07;24.27;;;13.23;;
59302;SDS011;45074;52.764;6.896;2023-07-28T05:25:32;22.67;;;13.07;;
59302;SDS011;45074;52.764;6.896;2023-07-28T05:27:58;23.67;;;13.07;;
59302;SDS011;45074;52.764;6.896;2023-07-28T05:30:23;23.85;;;14.20;;
59302;SDS011;45074;52.764;6.896;2023-07-28T05:32:49;25.38;;;13.10;;
59302;SDS011;45074;52.764;6.896;2023-07-28T05:35:15;23.75;;;13.85;;
59302;SDS011;45074;52.764;6.896;2023-07-28T05:37:41;22.95;;;13.13;;
59302;SDS011;45074;52.764;6.896;2023-07-28T05:40:06;31.17;;;14.77;;
59302;SDS011;45074;52.764;6.896;2023-07-28T05:42:33;28.58;;;14.40;;
59302;SDS011;45074;52.764;6.896;2023-07-28T05:44:59;26.42;;;14.00;;
59302;SDS011;45074;52.764;6.896;2023-07-28T05:47:24;24.30;;;13.60;;
59302;SDS011;45074;52.764;6.896;2023-07-28T05:49:51;22.15;;;13.68;;
59302;SDS011;45074;52.764;6.896;2023-07-28T05:52:20;26.27;;;13.70;;
59302;SDS011;45074;52.764;6.896;2023-07-28T05:54:47;28.48;;;14.50;;
59302;SDS011;45074;52.764;6.896;2023-07-28T05:57:13;25.30;;;14.32;;
59302;SDS011;45074;52.764;6.896;2023-07-28T05:59:39;22.75;;;13.43;;
59302;SDS011;45074;52.764;6.896;2023-07-28T06:02:04;26.85;;;14.20;;
59302;SDS011;45074;52.764;6.896;2023-07-28T06:04:30;23.70;;;14.07;;
59302;SDS011;45074;52.764;6.896;2023-07-28T06:06:56;26.50;;;14.77;;
59302;SDS011;45074;52.764;6.896;2023-07-28T06:09:22;23.40;;;13.57;;
59302;SDS011;45074;52.764;6.896;2023-07-28T06:11:47;24.40;;;14.18;;
59302;SDS011;45074;52.764;6.896;2023-07-28T06:14:13;22.42;;;14.27;;
59302;SDS011;45074;52.764;6.896;2023-07-28T06:16:38;24.92;;;14.15;;
59302;SDS011;45074;52.764;6.896;2023-07-28T06:19:04;27.23;;;14.20;;
59302;SDS011;45074;52.764;6.896;2023-07-28T06:21:30;24.65;;;14.80;;
59302;SDS011;45074;52.764;6.896;2023-07-28T06:23:56;24.50;;;13.57;;
59302;SDS011;45074;52.764;6.896;2023-07-28T06:26:21;22.58;;;13.10;;
59302;SDS011;45074;52.764;6.896;2023-07-28T06:28:47;24.90;;;13.88;;
59302;SDS011;45074;52.764;6.896;2023-07-28T06:31:12;23.25;;;14.07;;
59302;SDS011;45074;52.764;6.896;2023-07-28T06:33:38;22.20;;;13.10;;
59302;SDS011;45074;52.764;6.896;2023-07-28T06:36:04;23.95;;;14.15;;
59302;SDS011;45074;52.764;6.896;2023-07-28T06:38:30;22.45;;;14.18;;
59302;SDS011;45074;52.764;6.896;2023-07-28T06:40:55;22.85;;;13.70;;
59302;SDS011;45074;52.764;6.896;2023-07-28T06:43:21;21.83;;;13.15;;
59302;SDS011;45074;52.764;6.896;2023-07-28T06:45:50;22.02;;;14.10;;
59302;SDS011;45074;52.764;6.896;2023-07-28T06:48:16;20.98;;;12.88;;
59302;SDS011;45074;52.764;6.896;2023-07-28T06:50:41;21.88;;;13.10;;
59302;SDS011;45074;52.764;6.896;2023-07-28T06:53:07;20.83;;;13.20;;
59302;SDS011;45074;52.764;6.896;2023-07-28T06:55:33;21.90;;;12.98;;
59302;SDS011;45074;52.764;6.896;2023-07-28T06:57:58;21.92;;;13.25;;
59302;SDS011;45074;52.764;6.896;2023-07-28T07:00:25;19.60;;;13.35;;
59302;SDS011;45074;52.764;6.896;2023-07-28T07:02:50;20.15;;;12.70;;
59302;SDS011;45074;52.764;6.896;2023-07-28T07:05:16;22.15;;;13.32;;
59302;SDS011;45074;52.764;6.896;2023-07-28T07:07:42;21.35;;;12.82;;
59302;SDS011;45074;52.764;6.896;2023-07-28T07:10:08;24.48;;;12.90;;
59302;SDS011;45074;52.764;6.896;2023-07-28T07:12:34;18.75;;;12.98;;
59302;SDS011;45074;52.764;6.896;2023-07-28T07:15:01;20.15;;;12.98;;
59302;SDS011;45074;52.764;6.896;2023-07-28T07:17:26;19.35;;;12.45;;
59302;SDS011;45074;52.764;6.896;2023-07-28T07:19:52;20.05;;;12.05;;
59302;SDS011;45074;52.764;6.896;2023-07-28T07:22:17;20.85;;;12.80;;
59302;SDS011;45074;52.764;6.896;2023-07-28T07:24:43;18.20;;;12.50;;
59302;SDS011;45074;52.764;6.896;2023-07-28T07:27:09;20.55;;;12.70;;
59302;SDS011;45074;52.764;6.896;2023-07-28T07:29:36;18.85;;;11.68;;
59302;SDS011;45074;52.764;6.896;2023-07-28T07:32:06;20.58;;;12.25;;
59302;SDS011;45074;52.764;6.896;2023-07-28T07:34:33;17.65;;;11.95;;
59302;SDS011;45074;52.764;6.896;2023-07-28T07:36:59;18.95;;;12.00;;
59302;SDS011;45074;52.764;6.896;2023-07-28T07:39:25;17.65;;;10.90;;
59302;SDS011;45074;52.764;6.896;2023-07-28T07:41:50;18.48;;;11.20;;
59302;SDS011;45074;52.764;6.896;2023-07-28T07:44:16;16.42;;;10.68;;
59302;SDS011;45074;52.764;6.896;2023-07-28T07:46:41;14.55;;;9.88;;
59302;SDS011;45074;52.764;6.896;2023-07-28T07:49:07;17.15;;;9.98;;
59302;SDS011;45074;52.764;6.896;2023-07-28T07:51:33;15.93;;;10.38;;
59302;SDS011;45074;52.764;6.896;2023-07-28T07:53:59;14.82;;;10.65;;
59302;SDS011;45074;52.764;6.896;2023-07-28T07:56:29;18.48;;;11.18;;
59302;SDS011;45074;52.764;6.896;2023-07-28T07:58:55;16.90;;;11.15;;
59302;SDS011;45074;52.764;6.896;2023-07-28T08:01:21;16.95;;;10.95;;
59302;SDS011;45074;52.764;6.896;2023-07-28T08:03:47;15.15;;;10.50;;
59302;SDS011;45074;52.764;6.896;2023-07-28T08:06:12;18.10;;;11.48;;
59302;SDS011;45074;52.764;6.896;2023-07-28T08:08:38;19.15;;;11.25;;
59302;SDS011;45074;52.764;6.896;2023-07-28T08:11:04;16.95;;;10.45;;
59302;SDS011;45074;52.764;6.896;2023-07-28T08:13:30;15.20;;;10.20;;
59302;SDS011;45074;52.764;6.896;2023-07-28T08:15:56;16.90;;;10.32;;
59302;SDS011;45074;52.764;6.896;2023-07-28T08:18:21;15.55;;;9.90;;
59302;SDS011;45074;52.764;6.896;2023-07-28T08:20:48;14.80;;;10.35;;
59302;SDS011;45074;52.764;6.896;2023-07-28T08:23:13;16.27;;;9.55;;
59302;SDS011;45074;52.764;6.896;2023-07-28T08:25:39;16.40;;;9.80;;
59302;SDS011;45074;52.764;6.896;2023-07-28T08:28:05;15.25;;;9.52;;
59302;SDS011;45074;52.764;6.896;2023-07-28T08:30:31;13.82;;;9.35;;
59302;SDS011;45074;52.764;6.896;2023-07-28T08:32:58;11.70;;;9.10;;
59302;SDS011;45074;52.764;6.896;2023-07-28T08:35:24;11.80;;;8.65;;
59302;SDS011;45074;52.764;6.896;2023-07-28T08:37:49;11.75;;;8.07;;
59302;SDS011;45074;52.764;6.896;2023-07-28T08:40:15;12.40;;;8.38;;
59302;SDS011;45074;52.764;6.896;2023-07-28T08:42:41;13.95;;;8.13;;
59302;SDS011;45074;52.764;6.896;2023-07-28T08:45:07;12.45;;;8.57;;
59302;SDS011;45074;52.764;6.896;2023-07-28T08:47:34;13.48;;;8.40;;
59302;SDS011;45074;52.764;6.896;2023-07-28T08:50:00;12.23;;;7.93;;
59302;SDS011;45074;52.764;6.896;2023-07-28T08:52:26;13.50;;;8.43;;
59302;SDS011;45074;52.764;6.896;2023-07-28T08:54:52;13.65;;;7.93;;
59302;SDS011;45074;52.764;6.896;2023-07-28T08:57:18;13.15;;;8.10;;
59302;SDS011;45074;52.764;6.896;2023-07-28T08:59:44;13.25;;;7.40;;
59302;SDS011;45074;52.764;6.896;2023-07-28T09:02:17;11.80;;;6.60;;
59302;SDS011;45074;52.764;6.896;2023-07-28T09:04:44;11.05;;;6.68;;
59302;SDS011;45074;52.764;6.896;2023-07-28T09:07:11;12.30;;;6.65;;
59302;SDS011;45074;52.764;6.896;2023-07-28T09:09:37;10.68;;;6.55;;
59302;SDS011;45074;52.764;6.896;2023-07-28T09:12:03;10.90;;;7.00;;
59302;SDS011;45074;52.764;6.896;2023-07-28T09:14:29;11.23;;;7.18;;
59302;SDS011;45074;52.764;6.896;2023-07-28T09:16:56;11.57;;;7.25;;
59302;SDS011;45074;52.764;6.896;2023-07-28T09:19:34;13.18;;;7.35;;
59302;SDS011;45074;52.764;6.896;2023-07-28T09:22:01;13.10;;;7.30;;
59302;SDS011;45074;52.764;6.896;2023-07-28T09:24:30;11.45;;;7.68;;
59302;SDS011;45074;52.764;6.896;2023-07-28T09:26:57;12.88;;;8.10;;
59302;SDS011;45074;52.764;6.896;2023-07-28T09:29:24;15.75;;;7.18;;
59302;SDS011;45074;52.764;6.896;2023-07-28T09:31:51;10.70;;;7.13;;
59302;SDS011;45074;52.764;6.896;2023-07-28T09:34:27;12.88;;;7.75;;
59302;SDS011;45074;52.764;6.896;2023-07-28T09:36:53;14.13;;;7.28;;
59302;SDS011;45074;52.764;6.896;2023-07-28T09:39:20;11.40;;;7.40;;
59302;SDS011;45074;52.764;6.896;2023-07-28T09:41:46;12.60;;;7.50;;
59302;SDS011;45074;52.764;6.896;2023-07-28T09:44:12;10.85;;;7.22;;
59302;SDS011;45074;52.764;6.896;2023-07-28T09:46:41;13.13;;;7.18;;
59302;SDS011;45074;52.764;6.896;2023-07-28T09:49:36;12.48;;;7.82;;
59302;SDS011;45074;52.764;6.896;2023-07-28T09:52:05;13.25;;;7.65;;
59302;SDS011;45074;52.764;6.896;2023-07-28T09:54:39;11.20;;;6.95;;
59302;SDS011;45074;52.764;6.896;2023-07-28T09:57:12;12.88;;;7.57;;
59302;SDS011;45074;52.764;6.896;2023-07-28T09:59:41;13.63;;;7.15;;
59302;SDS011;45074;52.764;6.896;2023-07-28T10:02:10;11.65;;;6.43;;
59302;SDS011;45074;52.764;6.896;2023-07-28T10:04:35;12.40;;;7.90;;
59302;SDS011;45074;52.764;6.896;2023-07-28T10:07:02;22.30;;;11.32;;
59302;SDS011;45074;52.764;6.896;2023-07-28T10:09:30;15.60;;;9.32;;
59302;SDS011;45074;52.764;6.896;2023-07-28T10:11:58;13.73;;;9.10;;
59302;SDS011;45074;52.764;6.896;2023-07-28T10:14:35;14.00;;;9.65;;
59302;SDS011;45074;52.764;6.896;2023-07-28T10:17:02;14.35;;;9.98;;
59302;SDS011;45074;52.764;6.896;2023-07-28T10:19:34;16.63;;;10.55;;
59302;SDS011;45074;52.764;6.896;2023-07-28T10:22:01;16.88;;;10.15;;
59302;SDS011;45074;52.764;6.896;2023-07-28T10:24:49;12.40;;;8.10;;
59302;SDS011;45074;52.764;6.896;2023-07-28T10:29:58;13.07;;;7.80;;
59302;SDS011;45074;52.764;6.896;2023-07-28T10:32:28;13.13;;;8.27;;
59302;SDS011;45074;52.764;6.896;2023-07-28T10:35:00;12.15;;;8.27;;
59302;SDS011;45074;52.764;6.896;2023-07-28T10:37:26;14.35;;;8.80;;
59302;SDS011;45074;52.764;6.896;2023-07-28T10:40:21;14.07;;;9.68;;
59302;SDS011;45074;52.764;6.896;2023-07-28T10:42:47;12.05;;;10.02;;
59302;SDS011;45074;52.764;6.896;2023-07-28T10:45:13;15.98;;;9.80;;
59302;SDS011;45074;52.764;6.896;2023-07-28T10:47:40;15.25;;;9.95;;
59302;SDS011;45074;52.764;6.896;2023-07-28T10:50:08;13.88;;;10.20;;
59302;SDS011;45074;52.764;6.896;2023-07-28T10:52:34;13.80;;;9.40;;
59302;SDS011;45074;52.764;6.896;2023-07-28T10:55:04;11.93;;;8.50;;
59302;SDS011;45074;52.764;6.896;2023-07-28T10:57:30;14.00;;;8.07;;
59302;SDS011;45074;52.764;6.896;2023-07-28T10:59:59;10.32;;;8.10;;
59302;SDS011;45074;52.764;6.896;2023-07-28T11:02:25;12.32;;;8.55;;
59302;SDS011;45074;52.764;6.896;2023-07-28T11:04:52;11.45;;;8.27;;
59302;SDS011;45074;52.764;6.896;2023-07-28T11:07:18;12.98;;;7.25;;
59302;SDS011;45074;52.764;6.896;2023-07-28T11:09:45;10.02;;;6.80;;
59302;SDS011;45074;52.764;6.896;2023-07-28T11:12:10;9.70;;;6.10;;
59302;SDS011;45074;52.764;6.896;2023-07-28T11:14:36;10.07;;;6.85;;
59302;SDS011;45074;52.764;6.896;2023-07-28T11:17:02;9.07;;;6.03;;
59302;SDS011;45074;52.764;6.896;2023-07-28T11:19:27;10.02;;;6.47;;
59302;SDS011;45074;52.764;6.896;2023-07-28T11:21:54;10.40;;;6.50;;
59302;SDS011;45074;52.764;6.896;2023-07-28T11:24:20;10.35;;;6.80;;
59302;SDS011;45074;52.764;6.896;2023-07-28T11:26:46;10.20;;;6.72;;
59302;SDS011;45074;52.764;6.896;2023-07-28T11:29:12;9.60;;;6.00;;
59302;SDS011;45074;52.764;6.896;2023-07-28T11:31:38;12.77;;;6.63;;
59302;SDS011;45074;52.764;6.896;2023-07-28T11:34:18;9.63;;;5.90;;
59302;SDS011;45074;52.764;6.896;2023-07-28T11:36:44;9.63;;;6.00;;
59302;SDS011;45074;52.764;6.896;2023-07-28T11:39:09;8.05;;;5.05;;
59302;SDS011;45074;52.764;6.896;2023-07-28T11:41:35;9.35;;;6.05;;
59302;SDS011;45074;52.764;6.896;2023-07-28T11:44:02;11.45;;;6.50;;
59302;SDS011;45074;52.764;6.896;2023-07-28T11:46:33;8.60;;;5.28;;
59302;SDS011;45074;52.764;6.896;2023-07-28T11:51:41;9.80;;;7.13;;
59302;SDS011;45074;52.764;6.896;2023-07-28T11:54:11;10.95;;;7.32;;
59302;SDS011;45074;52.764;6.896;2023-07-28T11:56:40;9.68;;;6.63;;
59302;SDS011;45074;52.764;6.896;2023-07-28T11:59:09;8.05;;;6.20;;
59302;SDS011;45074;52.764;6.896;2023-07-28T12:01:55;10.00;;;6.28;;
59302;SDS011;45074;52.764;6.896;2023-07-28T12:04:26;9.75;;;6.60;;
59302;SDS011;45074;52.764;6.896;2023-07-28T12:09:47;9.45;;;7.05;;
59302;SDS011;45074;52.764;6.896;2023-07-28T12:12:23;10.88;;;7.22;;
59302;SDS011;45074;52.764;6.896;2023-07-28T12:14:51;10.00;;;7.25;;
59302;SDS011;45074;52.764;6.896;2023-07-28T12:17:18;11.60;;;8.38;;
59302;SDS011;45074;52.764;6.896;2023-07-28T12:19:55;10.00;;;7.60;;
59302;SDS011;45074;52.764;6.896;2023-07-28T12:22:25;10.60;;;8.18;;
59302;SDS011;45074;52.764;6.896;2023-07-28T12:24:52;10.65;;;7.47;;
59302;SDS011;45074;52.764;6.896;2023-07-28T12:27:18;11.35;;;8.10;;
59302;SDS011;45074;52.764;6.896;2023-07-28T12:29:52;11.30;;;7.30;;
59302;SDS011;45074;52.764;6.896;2023-07-28T12:32:18;9.13;;;6.40;;
59302;SDS011;45074;52.764;6.896;2023-07-28T12:34:44;8.57;;;5.82;;
59302;SDS011;45074;52.764;6.896;2023-07-28T12:37:10;8.82;;;6.32;;
59302;SDS011;45074;52.764;6.896;2023-07-28T12:39:37;8.15;;;5.65;;
59302;SDS011;45074;52.764;6.896;2023-07-28T12:42:07;8.25;;;5.22;;
59302;SDS011;45074;52.764;6.896;2023-07-28T12:44:34;8.50;;;5.35;;
59302;SDS011;45074;52.764;6.896;2023-07-28T12:47:00;9.15;;;5.50;;
59302;SDS011;45074;52.764;6.896;2023-07-28T12:49:27;8.32;;;5.20;;
59302;SDS011;45074;52.764;6.896;2023-07-28T12:51:54;7.30;;;4.80;;
59302;SDS011;45074;52.764;6.896;2023-07-28T12:54:21;6.57;;;4.95;;
59302;SDS011;45074;52.764;6.896;2023-07-28T12:56:47;5.75;;;4.40;;
59302;SDS011;45074;52.764;6.896;2023-07-28T12:59:14;6.82;;;4.10;;
59302;SDS011;45074;52.764;6.896;2023-07-28T13:01:40;7.07;;;4.70;;
59302;SDS011;45074;52.764;6.896;2023-07-28T13:04:06;9.20;;;5.32;;
59302;SDS011;45074;52.764;6.896;2023-07-28T13:06:32;7.22;;;4.95;;
59302;SDS011;45074;52.764;6.896;2023-07-28T13:08:58;6.60;;;4.60;;
59302;SDS011;45074;52.764;6.896;2023-07-28T13:11:24;7.00;;;4.70;;
59302;SDS011;45074;52.764;6.896;2023-07-28T13:13:51;7.32;;;4.00;;
59302;SDS011;45074;52.764;6.896;2023-07-28T13:16:17;7.47;;;3.95;;
59302;SDS011;45074;52.764;6.896;2023-07-28T13:18:43;8.68;;;4.97;;
59302;SDS011;45074;52.764;6.896;2023-07-28T13:21:10;8.18;;;4.75;;
59302;SDS011;45074;52.764;6.896;2023-07-28T13:23:36;8.20;;;4.82;;
59302;SDS011;45074;52.764;6.896;2023-07-28T13:26:02;7.10;;;4.35;;
59302;SDS011;45074;52.764;6.896;2023-07-28T13:28:31;7.20;;;3.65;;
59302;SDS011;45074;52.764;6.896;2023-07-28T13:30:57;5.70;;;3.45;;
59302;SDS011;45074;52.764;6.896;2023-07-28T13:33:23;6.78;;;3.60;;
59302;SDS011;45074;52.764;6.896;2023-07-28T13:35:50;5.93;;;3.10;;
59302;SDS011;45074;52.764;6.896;2023-07-28T13:38:16;5.47;;;2.97;;
59302;SDS011;45074;52.764;6.896;2023-07-28T13:40:42;4.63;;;2.80;;
59302;SDS011;45074;52.764;6.896;2023-07-28T13:43:08;5.25;;;3.50;;
59302;SDS011;45074;52.764;6.896;2023-07-28T13:45:34;4.75;;;3.10;;
59302;SDS011;45074;52.764;6.896;2023-07-28T13:48:00;5.88;;;3.38;;
59302;SDS011;45074;52.764;6.896;2023-07-28T13:50:26;5.13;;;3.13;;
59302;SDS011;45074;52.764;6.896;2023-07-28T13:52:52;5.93;;;3.30;;
59302;SDS011;45074;52.764;6.896;2023-07-28T13:55:18;4.82;;;2.85;;
59302;SDS011;45074;52.764;6.896;2023-07-28T13:57:44;6.53;;;3.28;;
59302;SDS011;45074;52.764;6.896;2023-07-28T14:00:10;3.85;;;2.80;;
59302;SDS011;45074;52.764;6.896;2023-07-28T14:02:37;4.18;;;2.80;;
59302;SDS011;45074;52.764;6.896;2023-07-28T14:05:04;3.67;;;2.70;;
59302;SDS011;45074;52.764;6.896;2023-07-28T14:07:30;5.10;;;2.90;;
59302;SDS011;45074;52.764;6.896;2023-07-28T14:09:56;4.07;;;2.70;;
59302;SDS011;45074;52.764;6.896;2023-07-28T14:12:23;5.55;;;3.13;;
59302;SDS011;45074;52.764;6.896;2023-07-28T14:14:49;4.35;;;2.70;;
59302;SDS011;45074;52.764;6.896;2023-07-28T14:17:15;4.43;;;2.80;;
59302;SDS011;45074;52.764;6.896;2023-07-28T14:19:41;3.58;;;2.55;;
59302;SDS011;45074;52.764;6.896;2023-07-28T14:22:07;4.55;;;2.88;;
59302;SDS011;45074;52.764;6.896;2023-07-28T14:24:33;3.38;;;2.30;;
59302;SDS011;45074;52.764;6.896;2023-07-28T14:27:00;3.65;;;2.33;;
59302;SDS011;45074;52.764;6.896;2023-07-28T14:29:26;4.05;;;2.50;;
59302;SDS011;45074;52.764;6.896;2023-07-28T14:31:52;5.60;;;2.90;;
59302;SDS011;45074;52.764;6.896;2023-07-28T14:34:18;5.80;;;3.20;;